sensor_id;sensor_type;location;lat;lon;timestamp;temperature;humidity
63017;DHT22;50274;45.640;11.756;2023-12-20T00:01:49;4.00;69.20
63017;DHT22;50274;45.640;11.756;2023-12-20T00:04:15;4.00;69.30
63017;DHT22;50274;45.640;11.756;2023-12-20T00:06:41;4.00;69.20
63017;DHT22;50274;45.640;11.756;2023-12-20T00:09:06;4.00;69.20
63017;DHT22;50274;45.640;11.756;2023-12-20T00:11:32;4.00;69.30
63017;DHT22;50274;45.640;11.756;2023-12-20T00:13:58;4.00;69.30
63017;DHT22;50274;45.640;11.756;2023-12-20T00:16:24;3.90;69.30
63017;DHT22;50274;45.640;11.756;2023-12-20T00:18:50;3.90;69.30
63017;DHT22;50274;45.640;11.756;2023-12-20T00:21:15;3.90;69.30
63017;DHT22;50274;45.640;11.756;2023-12-20T00:23:41;3.90;69.30
63017;DHT22;50274;45.640;11.756;2023-12-20T00:26:07;3.90;69.30
63017;DHT22;50274;45.640;11.756;2023-12-20T00:28:33;3.90;69.30
63017;DHT22;50274;45.640;11.756;2023-12-20T00:30:59;3.90;69.30
63017;DHT22;50274;45.640;11.756;2023-12-20T00:33:24;3.90;69.30
63017;DHT22;50274;45.640;11.756;2023-12-20T00:35:50;3.80;69.30
63017;DHT22;50274;45.640;11.756;2023-12-20T00:38:16;3.80;69.30
63017;DHT22;50274;45.640;11.756;2023-12-20T00:40:42;3.80;69.30
63017;DHT22;50274;45.640;11.756;2023-12-20T00:43:07;3.80;69.40
63017;DHT22;50274;45.640;11.756;2023-12-20T00:45:33;3.70;69.40
63017;DHT22;50274;45.640;11.756;2023-12-20T00:47:59;3.70;69.50
63017;DHT22;50274;45.640;11.756;2023-12-20T00:50:25;3.70;69.40
63017;DHT22;50274;45.640;11.756;2023-12-20T00:52:51;3.70;69.50
63017;DHT22;50274;45.640;11.756;2023-12-20T00:55:16;3.60;69.50
63017;DHT22;50274;45.640;11.756;2023-12-20T00:57:42;3.70;69.60
63017;DHT22;50274;45.640;11.756;2023-12-20T01:00:08;3.60;69.60
63017;DHT22;50274;45.640;11.756;2023-12-20T01:02:39;3.60;69.70
63017;DHT22;50274;45.640;11.756;2023-12-20T01:05:05;3.60;69.70
63017;DHT22;50274;45.640;11.756;2023-12-20T01:07:32;3.60;69.60
63017;DHT22;50274;45.640;11.756;2023-12-20T01:09:58;3.60;69.60
63017;DHT22;50274;45.640;11.756;2023-12-20T01:12:24;3.50;69.60
63017;DHT22;50274;45.640;11.756;2023-12-20T01:14:50;3.50;69.60
63017;DHT22;50274;45.640;11.756;2023-12-20T01:17:15;3.50;69.60
63017;DHT22;50274;45.640;11.756;2023-12-20T01:19:41;3.50;69.70
63017;DHT22;50274;45.640;11.756;2023-12-20T01:22:07;3.50;69.70
63017;DHT22;50274;45.640;11.756;2023-12-20T01:24:33;3.40;69.70
63017;DHT22;50274;45.640;11.756;2023-12-20T01:26:58;3.40;69.70
63017;DHT22;50274;45.640;11.756;2023-12-20T01:29:24;3.40;69.70
63017;DHT22;50274;45.640;11.756;2023-12-20T01:31:50;3.40;69.80
63017;DHT22;50274;45.640;11.756;2023-12-20T01:34:16;3.30;69.80
63017;DHT22;50274;45.640;11.756;2023-12-20T01:36:42;3.30;69.90
63017;DHT22;50274;45.640;11.756;2023-12-20T01:39:08;3.30;69.90
63017;DHT22;50274;45.640;11.756;2023-12-20T01:41:34;3.40;69.90
63017;DHT22;50274;45.640;11.756;2023-12-20T01:44:00;3.40;69.90
63017;DHT22;50274;45.640;11.756;2023-12-20T01:46:25;3.40;69.90
63017;DHT22;50274;45.640;11.756;2023-12-20T01:48:52;3.30;69.90
63017;DHT22;50274;45.640;11.756;2023-12-20T01:51:18;3.30;69.90
63017;DHT22;50274;45.640;11.756;2023-12-20T01:53:45;3.30;69.90
63017;DHT22;50274;45.640;11.756;2023-12-20T01:56:11;3.30;69.90
63017;DHT22;50274;45.640;11.756;2023-12-20T01:58:41;3.30;69.90
63017;DHT22;50274;45.640;11.756;2023-12-20T02:01:09;3.30;69.90
63017;DHT22;50274;45.640;11.756;2023-12-20T02:03:35;3.30;69.90
63017;DHT22;50274;45.640;11.756;2023-12-20T02:06:03;3.30;69.90
63017;DHT22;50274;45.640;11.756;2023-12-20T02:08:29;3.30;69.90
63017;DHT22;50274;45.640;11.756;2023-12-20T02:10:56;3.30;69.90
63017;DHT22;50274;45.640;11.756;2023-12-20T02:13:21;3.20;69.90
63017;DHT22;50274;45.640;11.756;2023-12-20T02:15:47;3.20;69.90
63017;DHT22;50274;45.640;11.756;2023-12-20T02:18:13;3.30;70.00
63017;DHT22;50274;45.640;11.756;2023-12-20T02:20:42;3.20;70.00
63017;DHT22;50274;45.640;11.756;2023-12-20T02:23:08;3.20;70.00
63017;DHT22;50274;45.640;11.756;2023-12-20T02:25:33;3.20;70.00
63017;DHT22;50274;45.640;11.756;2023-12-20T02:27:59;3.20;70.10
63017;DHT22;50274;45.640;11.756;2023-12-20T02:30:25;3.20;70.10
63017;DHT22;50274;45.640;11.756;2023-12-20T02:32:51;3.10;70.10
63017;DHT22;50274;45.640;11.756;2023-12-20T02:35:18;3.10;70.10
63017;DHT22;50274;45.640;11.756;2023-12-20T02:37:43;3.10;70.20
63017;DHT22;50274;45.640;11.756;2023-12-20T02:40:09;3.10;70.20
63017;DHT22;50274;45.640;11.756;2023-12-20T02:42:36;3.10;70.20
63017;DHT22;50274;45.640;11.756;2023-12-20T02:45:02;3.10;70.20
63017;DHT22;50274;45.640;11.756;2023-12-20T02:47:27;3.10;70.20
63017;DHT22;50274;45.640;11.756;2023-12-20T02:49:55;3.10;70.30
63017;DHT22;50274;45.640;11.756;2023-12-20T02:52:22;3.10;70.20
63017;DHT22;50274;45.640;11.756;2023-12-20T02:54:48;3.10;70.20
63017;DHT22;50274;45.640;11.756;2023-12-20T02:57:14;3.10;70.20
63017;DHT22;50274;45.640;11.756;2023-12-20T02:59:40;3.10;70.20
63017;DHT22;50274;45.640;11.756;2023-12-20T03:02:06;3.00;70.30
63017;DHT22;50274;45.640;11.756;2023-12-20T03:04:31;3.00;70.30
63017;DHT22;50274;45.640;11.756;2023-12-20T03:06:57;3.00;70.30
63017;DHT22;50274;45.640;11.756;2023-12-20T03:09:23;3.00;70.30
63017;DHT22;50274;45.640;11.756;2023-12-20T03:11:49;3.00;70.30
63017;DHT22;50274;45.640;11.756;2023-12-20T03:14:15;3.00;70.30
63017;DHT22;50274;45.640;11.756;2023-12-20T03:16:40;3.00;70.20
63017;DHT22;50274;45.640;11.756;2023-12-20T03:19:06;3.00;70.20
63017;DHT22;50274;45.640;11.756;2023-12-20T03:21:32;3.00;70.30
63017;DHT22;50274;45.640;11.756;2023-12-20T03:23:58;2.90;70.30
63017;DHT22;50274;45.640;11.756;2023-12-20T03:26:24;3.00;70.40
63017;DHT22;50274;45.640;11.756;2023-12-20T03:28:49;2.90;70.40
63017;DHT22;50274;45.640;11.756;2023-12-20T03:31:15;2.90;70.40
63017;DHT22;50274;45.640;11.756;2023-12-20T03:33:41;3.00;70.40
63017;DHT22;50274;45.640;11.756;2023-12-20T03:36:07;2.90;70.40
63017;DHT22;50274;45.640;11.756;2023-12-20T03:38:33;2.90;70.40
63017;DHT22;50274;45.640;11.756;2023-12-20T03:40:58;2.90;70.40
63017;DHT22;50274;45.640;11.756;2023-12-20T03:43:24;2.90;70.40
63017;DHT22;50274;45.640;11.756;2023-12-20T03:45:50;2.90;70.40
63017;DHT22;50274;45.640;11.756;2023-12-20T03:48:16;2.90;70.40
63017;DHT22;50274;45.640;11.756;2023-12-20T03:50:41;2.90;70.50
63017;DHT22;50274;45.640;11.756;2023-12-20T03:53:07;2.80;70.50
63017;DHT22;50274;45.640;11.756;2023-12-20T03:55:34;2.80;70.50
63017;DHT22;50274;45.640;11.756;2023-12-20T03:57:59;2.80;70.50
63017;DHT22;50274;45.640;11.756;2023-12-20T04:00:25;2.80;70.50
63017;DHT22;50274;45.640;11.756;2023-12-20T04:02:51;2.80;70.60
63017;DHT22;50274;45.640;11.756;2023-12-20T04:05:17;2.80;70.60
63017;DHT22;50274;45.640;11.756;2023-12-20T04:07:43;2.80;70.60
63017;DHT22;50274;45.640;11.756;2023-12-20T04:10:09;2.80;70.60
63017;DHT22;50274;45.640;11.756;2023-12-20T04:12:35;2.80;70.70
63017;DHT22;50274;45.640;11.756;2023-12-20T04:15:01;2.80;70.70
63017;DHT22;50274;45.640;11.756;2023-12-20T04:17:27;2.80;70.70
63017;DHT22;50274;45.640;11.756;2023-12-20T04:19:52;2.80;70.80
63017;DHT22;50274;45.640;11.756;2023-12-20T04:22:19;2.80;70.80
63017;DHT22;50274;45.640;11.756;2023-12-20T04:24:45;2.80;70.80
63017;DHT22;50274;45.640;11.756;2023-12-20T04:27:11;2.80;70.90
63017;DHT22;50274;45.640;11.756;2023-12-20T04:29:37;2.80;70.90
63017;DHT22;50274;45.640;11.756;2023-12-20T04:32:03;2.90;70.90
63017;DHT22;50274;45.640;11.756;2023-12-20T04:34:29;2.90;70.90
63017;DHT22;50274;45.640;11.756;2023-12-20T04:36:55;2.90;71.00
63017;DHT22;50274;45.640;11.756;2023-12-20T04:39:21;2.90;71.00
63017;DHT22;50274;45.640;11.756;2023-12-20T04:41:47;2.90;71.00
63017;DHT22;50274;45.640;11.756;2023-12-20T04:44:15;2.90;71.00
63017;DHT22;50274;45.640;11.756;2023-12-20T04:46:41;2.90;71.10
63017;DHT22;50274;45.640;11.756;2023-12-20T04:49:07;2.90;71.10
63017;DHT22;50274;45.640;11.756;2023-12-20T04:51:34;2.90;71.10
63017;DHT22;50274;45.640;11.756;2023-12-20T04:54:00;2.90;71.10
63017;DHT22;50274;45.640;11.756;2023-12-20T04:56:26;2.90;71.20
63017;DHT22;50274;45.640;11.756;2023-12-20T04:58:52;2.90;71.20
63017;DHT22;50274;45.640;11.756;2023-12-20T05:01:18;2.90;71.20
63017;DHT22;50274;45.640;11.756;2023-12-20T05:03:44;2.90;71.20
63017;DHT22;50274;45.640;11.756;2023-12-20T05:06:10;2.90;71.20
63017;DHT22;50274;45.640;11.756;2023-12-20T05:08:36;2.90;71.30
63017;DHT22;50274;45.640;11.756;2023-12-20T05:11:02;2.90;71.30
63017;DHT22;50274;45.640;11.756;2023-12-20T05:13:28;2.90;71.30
63017;DHT22;50274;45.640;11.756;2023-12-20T05:15:54;2.90;71.30
63017;DHT22;50274;45.640;11.756;2023-12-20T05:18:21;2.90;71.40
63017;DHT22;50274;45.640;11.756;2023-12-20T05:20:47;2.90;71.40
63017;DHT22;50274;45.640;11.756;2023-12-20T05:23:13;2.90;71.40
63017;DHT22;50274;45.640;11.756;2023-12-20T05:25:39;2.80;71.40
63017;DHT22;50274;45.640;11.756;2023-12-20T05:28:05;2.90;71.40
63017;DHT22;50274;45.640;11.756;2023-12-20T05:30:31;2.90;71.50
63017;DHT22;50274;45.640;11.756;2023-12-20T05:32:57;2.90;71.50
63017;DHT22;50274;45.640;11.756;2023-12-20T05:35:23;2.90;71.50
63017;DHT22;50274;45.640;11.756;2023-12-20T05:37:49;2.90;71.40
63017;DHT22;50274;45.640;11.756;2023-12-20T05:40:15;2.80;71.40
63017;DHT22;50274;45.640;11.756;2023-12-20T05:42:41;2.90;71.40
63017;DHT22;50274;45.640;11.756;2023-12-20T05:45:08;2.90;71.50
63017;DHT22;50274;45.640;11.756;2023-12-20T05:47:34;2.80;71.50
63017;DHT22;50274;45.640;11.756;2023-12-20T05:50:00;2.80;71.50
63017;DHT22;50274;45.640;11.756;2023-12-20T05:52:26;2.80;71.50
63017;DHT22;50274;45.640;11.756;2023-12-20T05:54:52;2.80;71.60
63017;DHT22;50274;45.640;11.756;2023-12-20T05:57:18;2.80;71.70
63017;DHT22;50274;45.640;11.756;2023-12-20T05:59:43;2.80;71.80
63017;DHT22;50274;45.640;11.756;2023-12-20T06:02:09;2.80;71.80
63017;DHT22;50274;45.640;11.756;2023-12-20T06:04:35;2.80;71.80
63017;DHT22;50274;45.640;11.756;2023-12-20T06:07:02;2.80;71.80
63017;DHT22;50274;45.640;11.756;2023-12-20T06:09:28;2.90;71.80
63017;DHT22;50274;45.640;11.756;2023-12-20T06:11:54;2.90;71.90
63017;DHT22;50274;45.640;11.756;2023-12-20T06:14:20;2.90;71.90
63017;DHT22;50274;45.640;11.756;2023-12-20T06:16:46;2.90;71.90
63017;DHT22;50274;45.640;11.756;2023-12-20T06:19:12;2.90;72.00
63017;DHT22;50274;45.640;11.756;2023-12-20T06:21:37;2.90;72.00
63017;DHT22;50274;45.640;11.756;2023-12-20T06:24:03;3.00;72.00
63017;DHT22;50274;45.640;11.756;2023-12-20T06:26:29;3.00;72.10
63017;DHT22;50274;45.640;11.756;2023-12-20T06:28:55;3.00;72.10
63017;DHT22;50274;45.640;11.756;2023-12-20T06:31:21;3.00;72.10
63017;DHT22;50274;45.640;11.756;2023-12-20T06:33:47;3.00;72.10
63017;DHT22;50274;45.640;11.756;2023-12-20T06:36:15;3.00;72.20
63017;DHT22;50274;45.640;11.756;2023-12-20T06:38:41;3.00;72.10
63017;DHT22;50274;45.640;11.756;2023-12-20T06:41:07;3.00;72.20
63017;DHT22;50274;45.640;11.756;2023-12-20T06:43:33;3.00;72.20
63017;DHT22;50274;45.640;11.756;2023-12-20T06:46:00;3.00;72.20
63017;DHT22;50274;45.640;11.756;2023-12-20T06:48:26;3.00;72.30
63017;DHT22;50274;45.640;11.756;2023-12-20T06:50:52;3.00;72.30
63017;DHT22;50274;45.640;11.756;2023-12-20T06:53:18;3.00;72.40
63017;DHT22;50274;45.640;11.756;2023-12-20T06:55:43;3.00;72.40
63017;DHT22;50274;45.640;11.756;2023-12-20T06:58:09;3.00;72.60
63017;DHT22;50274;45.640;11.756;2023-12-20T07:00:35;3.00;72.60
63017;DHT22;50274;45.640;11.756;2023-12-20T07:03:01;3.10;72.60
63017;DHT22;50274;45.640;11.756;2023-12-20T07:05:27;3.10;72.80
63017;DHT22;50274;45.640;11.756;2023-12-20T07:07:53;3.20;72.70
63017;DHT22;50274;45.640;11.756;2023-12-20T07:10:19;3.20;72.70
63017;DHT22;50274;45.640;11.756;2023-12-20T07:12:45;3.20;72.60
63017;DHT22;50274;45.640;11.756;2023-12-20T07:15:11;3.30;72.60
63017;DHT22;50274;45.640;11.756;2023-12-20T07:17:37;3.30;72.60
63017;DHT22;50274;45.640;11.756;2023-12-20T07:20:03;3.40;72.60
63017;DHT22;50274;45.640;11.756;2023-12-20T07:22:30;3.40;72.50
63017;DHT22;50274;45.640;11.756;2023-12-20T07:24:59;3.40;72.60
63017;DHT22;50274;45.640;11.756;2023-12-20T07:27:25;3.30;72.60
63017;DHT22;50274;45.640;11.756;2023-12-20T07:29:51;3.40;72.60
63017;DHT22;50274;45.640;11.756;2023-12-20T07:32:17;3.40;72.60
63017;DHT22;50274;45.640;11.756;2023-12-20T07:34:43;3.40;72.70
63017;DHT22;50274;45.640;11.756;2023-12-20T07:37:09;3.40;72.70
63017;DHT22;50274;45.640;11.756;2023-12-20T07:39:39;3.40;72.80
63017;DHT22;50274;45.640;11.756;2023-12-20T07:42:06;3.50;72.70
63017;DHT22;50274;45.640;11.756;2023-12-20T07:44:32;3.50;72.70
63017;DHT22;50274;45.640;11.756;2023-12-20T07:46:58;3.50;72.80
63017;DHT22;50274;45.640;11.756;2023-12-20T07:49:24;3.50;72.80
63017;DHT22;50274;45.640;11.756;2023-12-20T07:51:50;3.50;72.80
63017;DHT22;50274;45.640;11.756;2023-12-20T07:54:16;3.60;72.80
63017;DHT22;50274;45.640;11.756;2023-12-20T07:56:42;3.60;72.80
63017;DHT22;50274;45.640;11.756;2023-12-20T07:59:07;3.60;72.80
63017;DHT22;50274;45.640;11.756;2023-12-20T08:01:33;3.60;72.80
63017;DHT22;50274;45.640;11.756;2023-12-20T08:03:59;3.60;72.90
63017;DHT22;50274;45.640;11.756;2023-12-20T08:06:25;3.60;72.80
63017;DHT22;50274;45.640;11.756;2023-12-20T08:08:51;3.70;72.90
63017;DHT22;50274;45.640;11.756;2023-12-20T08:11:16;3.70;72.90
63017;DHT22;50274;45.640;11.756;2023-12-20T08:13:43;3.70;72.80
63017;DHT22;50274;45.640;11.756;2023-12-20T08:16:09;3.80;72.80
63017;DHT22;50274;45.640;11.756;2023-12-20T08:18:35;3.80;72.90
63017;DHT22;50274;45.640;11.756;2023-12-20T08:21:01;3.80;73.00
63017;DHT22;50274;45.640;11.756;2023-12-20T08:23:27;3.90;72.90
63017;DHT22;50274;45.640;11.756;2023-12-20T08:25:53;3.90;72.90
63017;DHT22;50274;45.640;11.756;2023-12-20T08:28:19;4.00;73.00
63017;DHT22;50274;45.640;11.756;2023-12-20T08:30:45;4.00;72.80
63017;DHT22;50274;45.640;11.756;2023-12-20T08:33:11;4.10;72.80
63017;DHT22;50274;45.640;11.756;2023-12-20T08:35:39;4.10;72.80
63017;DHT22;50274;45.640;11.756;2023-12-20T08:38:05;4.10;72.80
63017;DHT22;50274;45.640;11.756;2023-12-20T08:40:31;4.20;72.80
63017;DHT22;50274;45.640;11.756;2023-12-20T08:42:57;4.20;72.90
63017;DHT22;50274;45.640;11.756;2023-12-20T08:45:23;4.30;72.80
63017;DHT22;50274;45.640;11.756;2023-12-20T08:47:50;4.30;72.80
63017;DHT22;50274;45.640;11.756;2023-12-20T08:50:16;4.40;72.60
63017;DHT22;50274;45.640;11.756;2023-12-20T08:52:41;4.40;72.70
63017;DHT22;50274;45.640;11.756;2023-12-20T08:55:08;4.50;72.80
63017;DHT22;50274;45.640;11.756;2023-12-20T08:57:35;4.60;72.80
63017;DHT22;50274;45.640;11.756;2023-12-20T09:00:01;4.70;72.60
63017;DHT22;50274;45.640;11.756;2023-12-20T09:02:27;4.70;72.60
63017;DHT22;50274;45.640;11.756;2023-12-20T09:04:53;4.90;72.60
63017;DHT22;50274;45.640;11.756;2023-12-20T09:07:25;4.90;72.50
63017;DHT22;50274;45.640;11.756;2023-12-20T09:09:52;5.00;72.50
63017;DHT22;50274;45.640;11.756;2023-12-20T09:12:19;5.10;72.50
63017;DHT22;50274;45.640;11.756;2023-12-20T09:14:49;5.20;72.40
63017;DHT22;50274;45.640;11.756;2023-12-20T09:17:16;5.20;72.30
63017;DHT22;50274;45.640;11.756;2023-12-20T09:19:43;5.30;72.20
63017;DHT22;50274;45.640;11.756;2023-12-20T09:22:12;5.40;72.10
63017;DHT22;50274;45.640;11.756;2023-12-20T09:24:38;5.50;72.10
63017;DHT22;50274;45.640;11.756;2023-12-20T09:27:06;5.50;72.20
63017;DHT22;50274;45.640;11.756;2023-12-20T09:29:32;5.60;72.10
63017;DHT22;50274;45.640;11.756;2023-12-20T09:31:58;5.60;72.10
63017;DHT22;50274;45.640;11.756;2023-12-20T09:34:24;5.70;72.00
63017;DHT22;50274;45.640;11.756;2023-12-20T09:36:51;5.70;71.90
63017;DHT22;50274;45.640;11.756;2023-12-20T09:39:18;5.80;71.90
63017;DHT22;50274;45.640;11.756;2023-12-20T09:41:49;5.90;71.80
63017;DHT22;50274;45.640;11.756;2023-12-20T09:44:18;5.90;71.80
63017;DHT22;50274;45.640;11.756;2023-12-20T09:46:46;6.00;71.80
63017;DHT22;50274;45.640;11.756;2023-12-20T09:49:14;6.00;71.80
63017;DHT22;50274;45.640;11.756;2023-12-20T09:51:42;6.00;71.90
63017;DHT22;50274;45.640;11.756;2023-12-20T09:54:08;6.10;71.90
63017;DHT22;50274;45.640;11.756;2023-12-20T09:56:35;6.10;71.90
63017;DHT22;50274;45.640;11.756;2023-12-20T09:59:01;6.10;71.80
63017;DHT22;50274;45.640;11.756;2023-12-20T10:01:29;6.10;71.90
63017;DHT22;50274;45.640;11.756;2023-12-20T10:03:56;6.20;72.00
63017;DHT22;50274;45.640;11.756;2023-12-20T10:06:24;6.20;72.00
63017;DHT22;50274;45.640;11.756;2023-12-20T10:08:50;6.10;72.00
63017;DHT22;50274;45.640;11.756;2023-12-20T10:11:15;6.20;72.10
63017;DHT22;50274;45.640;11.756;2023-12-20T10:13:42;6.20;72.10
63017;DHT22;50274;45.640;11.756;2023-12-20T10:16:09;6.20;72.00
63017;DHT22;50274;45.640;11.756;2023-12-20T10:18:35;6.20;72.00
63017;DHT22;50274;45.640;11.756;2023-12-20T10:21:01;6.20;72.10
63017;DHT22;50274;45.640;11.756;2023-12-20T10:23:29;6.30;72.10
63017;DHT22;50274;45.640;11.756;2023-12-20T10:25:59;6.30;72.00
63017;DHT22;50274;45.640;11.756;2023-12-20T10:28:25;6.30;72.00
63017;DHT22;50274;45.640;11.756;2023-12-20T10:30:54;6.30;72.00
63017;DHT22;50274;45.640;11.756;2023-12-20T10:33:27;6.30;72.10
63017;DHT22;50274;45.640;11.756;2023-12-20T10:35:57;6.30;72.20
63017;DHT22;50274;45.640;11.756;2023-12-20T10:38:23;6.40;72.10
63017;DHT22;50274;45.640;11.756;2023-12-20T10:40:54;6.40;72.00
63017;DHT22;50274;45.640;11.756;2023-12-20T10:43:26;6.40;72.00
63017;DHT22;50274;45.640;11.756;2023-12-20T10:45:59;6.50;72.00
63017;DHT22;50274;45.640;11.756;2023-12-20T10:48:25;6.50;71.80
63017;DHT22;50274;45.640;11.756;2023-12-20T10:50:56;6.60;71.90
63017;DHT22;50274;45.640;11.756;2023-12-20T10:53:23;6.60;71.90
63017;DHT22;50274;45.640;11.756;2023-12-20T10:55:52;6.70;71.80
63017;DHT22;50274;45.640;11.756;2023-12-20T10:58:20;6.70;71.60
63017;DHT22;50274;45.640;11.756;2023-12-20T11:00:50;6.80;71.40
63017;DHT22;50274;45.640;11.756;2023-12-20T11:03:31;6.80;71.40
63017;DHT22;50274;45.640;11.756;2023-12-20T11:06:10;6.80;71.30
63017;DHT22;50274;45.640;11.756;2023-12-20T11:08:50;6.80;71.20
63017;DHT22;50274;45.640;11.756;2023-12-20T11:11:26;6.90;71.20
63017;DHT22;50274;45.640;11.756;2023-12-20T11:16:30;6.90;71.10
63017;DHT22;50274;45.640;11.756;2023-12-20T11:18:56;6.80;71.10
63017;DHT22;50274;45.640;11.756;2023-12-20T11:21:23;6.90;71.10
63017;DHT22;50274;45.640;11.756;2023-12-20T11:23:49;6.90;71.10
63017;DHT22;50274;45.640;11.756;2023-12-20T11:26:26;6.90;71.10
63017;DHT22;50274;45.640;11.756;2023-12-20T11:28:53;6.80;71.10
63017;DHT22;50274;45.640;11.756;2023-12-20T11:31:19;6.80;71.20
63017;DHT22;50274;45.640;11.756;2023-12-20T11:33:46;6.80;71.20
63017;DHT22;50274;45.640;11.756;2023-12-20T11:36:17;6.90;71.30
63017;DHT22;50274;45.640;11.756;2023-12-20T11:38:57;6.90;71.30
63017;DHT22;50274;45.640;11.756;2023-12-20T11:41:23;6.90;71.30
63017;DHT22;50274;45.640;11.756;2023-12-20T11:43:53;6.80;71.40
63017;DHT22;50274;45.640;11.756;2023-12-20T11:46:19;6.80;71.60
63017;DHT22;50274;45.640;11.756;2023-12-20T11:48:46;6.80;71.60
63017;DHT22;50274;45.640;11.756;2023-12-20T11:51:13;6.80;71.50
63017;DHT22;50274;45.640;11.756;2023-12-20T11:53:42;6.90;71.60
63017;DHT22;50274;45.640;11.756;2023-12-20T11:56:09;6.80;71.70
63017;DHT22;50274;45.640;11.756;2023-12-20T11:58:35;6.90;71.70
63017;DHT22;50274;45.640;11.756;2023-12-20T12:01:01;6.90;71.60
63017;DHT22;50274;45.640;11.756;2023-12-20T12:03:32;6.90;72.10
63017;DHT22;50274;45.640;11.756;2023-12-20T12:05:58;6.80;71.80
63017;DHT22;50274;45.640;11.756;2023-12-20T12:08:24;6.80;71.90
63017;DHT22;50274;45.640;11.756;2023-12-20T12:10:50;6.90;72.10
63017;DHT22;50274;45.640;11.756;2023-12-20T12:13:16;6.90;72.10
63017;DHT22;50274;45.640;11.756;2023-12-20T12:15:42;6.90;72.30
63017;DHT22;50274;45.640;11.756;2023-12-20T12:18:08;6.90;72.60
63017;DHT22;50274;45.640;11.756;2023-12-20T12:20:35;7.00;72.40
63017;DHT22;50274;45.640;11.756;2023-12-20T12:23:03;7.00;72.20
63017;DHT22;50274;45.640;11.756;2023-12-20T12:25:30;7.00;72.40
63017;DHT22;50274;45.640;11.756;2023-12-20T12:27:58;7.00;72.20
63017;DHT22;50274;45.640;11.756;2023-12-20T12:30:24;7.10;72.20
63017;DHT22;50274;45.640;11.756;2023-12-20T12:32:51;7.10;72.20
63017;DHT22;50274;45.640;11.756;2023-12-20T12:35:18;7.10;72.50
63017;DHT22;50274;45.640;11.756;2023-12-20T12:37:45;7.10;72.40
63017;DHT22;50274;45.640;11.756;2023-12-20T12:40:12;7.10;72.40
63017;DHT22;50274;45.640;11.756;2023-12-20T12:42:39;7.10;72.40
63017;DHT22;50274;45.640;11.756;2023-12-20T12:45:07;7.10;72.50
63017;DHT22;50274;45.640;11.756;2023-12-20T12:47:34;7.10;72.50
63017;DHT22;50274;45.640;11.756;2023-12-20T12:50:00;7.10;72.50
63017;DHT22;50274;45.640;11.756;2023-12-20T12:52:26;7.10;72.30
63017;DHT22;50274;45.640;11.756;2023-12-20T12:54:52;7.20;72.50
63017;DHT22;50274;45.640;11.756;2023-12-20T12:57:19;7.10;72.40
63017;DHT22;50274;45.640;11.756;2023-12-20T12:59:45;7.20;72.50
63017;DHT22;50274;45.640;11.756;2023-12-20T13:02:14;7.20;72.40
63017;DHT22;50274;45.640;11.756;2023-12-20T13:04:41;7.20;72.30
63017;DHT22;50274;45.640;11.756;2023-12-20T13:07:08;7.20;72.30
63017;DHT22;50274;45.640;11.756;2023-12-20T13:09:36;7.30;72.40
63017;DHT22;50274;45.640;11.756;2023-12-20T13:12:02;7.30;72.40
63017;DHT22;50274;45.640;11.756;2023-12-20T13:14:31;7.30;72.30
63017;DHT22;50274;45.640;11.756;2023-12-20T13:16:58;7.40;72.20
63017;DHT22;50274;45.640;11.756;2023-12-20T13:19:25;7.40;72.20
63017;DHT22;50274;45.640;11.756;2023-12-20T13:21:51;7.50;72.30
63017;DHT22;50274;45.640;11.756;2023-12-20T13:24:16;7.50;72.00
63017;DHT22;50274;45.640;11.756;2023-12-20T13:26:42;7.50;72.10
63017;DHT22;50274;45.640;11.756;2023-12-20T13:29:08;7.60;72.10
63017;DHT22;50274;45.640;11.756;2023-12-20T13:31:34;7.60;72.10
63017;DHT22;50274;45.640;11.756;2023-12-20T13:34:02;7.70;72.30
63017;DHT22;50274;45.640;11.756;2023-12-20T13:36:27;7.70;72.20
63017;DHT22;50274;45.640;11.756;2023-12-20T13:38:53;7.80;72.30
63017;DHT22;50274;45.640;11.756;2023-12-20T13:41:20;7.90;72.10
63017;DHT22;50274;45.640;11.756;2023-12-20T13:43:46;8.00;72.00
63017;DHT22;50274;45.640;11.756;2023-12-20T13:46:11;8.20;71.80
63017;DHT22;50274;45.640;11.756;2023-12-20T13:48:39;8.40;71.60
63017;DHT22;50274;45.640;11.756;2023-12-20T13:51:05;8.50;71.20
63017;DHT22;50274;45.640;11.756;2023-12-20T13:53:32;8.70;70.90
63017;DHT22;50274;45.640;11.756;2023-12-20T13:55:57;8.80;70.60
63017;DHT22;50274;45.640;11.756;2023-12-20T13:58:25;9.00;69.90
63017;DHT22;50274;45.640;11.756;2023-12-20T14:00:51;9.00;69.90
63017;DHT22;50274;45.640;11.756;2023-12-20T14:03:17;9.00;69.60
63017;DHT22;50274;45.640;11.756;2023-12-20T14:05:43;9.00;69.40
63017;DHT22;50274;45.640;11.756;2023-12-20T14:08:08;9.00;69.40
63017;DHT22;50274;45.640;11.756;2023-12-20T14:10:35;8.90;69.40
63017;DHT22;50274;45.640;11.756;2023-12-20T14:13:01;8.80;69.40
63017;DHT22;50274;45.640;11.756;2023-12-20T14:15:27;8.80;69.50
63017;DHT22;50274;45.640;11.756;2023-12-20T14:17:53;8.70;69.60
63017;DHT22;50274;45.640;11.756;2023-12-20T14:20:20;8.60;69.70
63017;DHT22;50274;45.640;11.756;2023-12-20T14:22:46;8.60;69.80
63017;DHT22;50274;45.640;11.756;2023-12-20T14:25:13;8.50;69.80
63017;DHT22;50274;45.640;11.756;2023-12-20T14:27:39;8.50;69.80
63017;DHT22;50274;45.640;11.756;2023-12-20T14:30:06;8.50;69.80
63017;DHT22;50274;45.640;11.756;2023-12-20T14:32:34;8.50;69.80
63017;DHT22;50274;45.640;11.756;2023-12-20T14:35:06;8.50;69.80
63017;DHT22;50274;45.640;11.756;2023-12-20T14:37:34;8.40;69.90
63017;DHT22;50274;45.640;11.756;2023-12-20T14:40:01;8.40;69.90
63017;DHT22;50274;45.640;11.756;2023-12-20T14:42:26;8.30;70.10
63017;DHT22;50274;45.640;11.756;2023-12-20T14:44:52;8.20;70.20
63017;DHT22;50274;45.640;11.756;2023-12-20T14:47:20;8.10;70.40
63017;DHT22;50274;45.640;11.756;2023-12-20T14:49:46;8.00;70.50
63017;DHT22;50274;45.640;11.756;2023-12-20T14:52:13;8.00;70.70
63017;DHT22;50274;45.640;11.756;2023-12-20T14:54:39;7.90;70.80
63017;DHT22;50274;45.640;11.756;2023-12-20T14:57:04;7.90;70.90
63017;DHT22;50274;45.640;11.756;2023-12-20T14:59:30;7.80;71.10
63017;DHT22;50274;45.640;11.756;2023-12-20T15:01:56;7.70;71.30
63017;DHT22;50274;45.640;11.756;2023-12-20T15:04:22;7.80;71.70
63017;DHT22;50274;45.640;11.756;2023-12-20T15:06:54;7.80;71.70
63017;DHT22;50274;45.640;11.756;2023-12-20T15:09:20;7.80;71.80
63017;DHT22;50274;45.640;11.756;2023-12-20T15:11:46;7.80;71.70
63017;DHT22;50274;45.640;11.756;2023-12-20T15:14:12;7.70;71.60
63017;DHT22;50274;45.640;11.756;2023-12-20T15:16:43;7.70;71.90
63017;DHT22;50274;45.640;11.756;2023-12-20T15:19:09;7.60;71.90
63017;DHT22;50274;45.640;11.756;2023-12-20T15:21:35;7.60;71.90
63017;DHT22;50274;45.640;11.756;2023-12-20T15:24:06;7.50;72.10
63017;DHT22;50274;45.640;11.756;2023-12-20T15:26:41;7.40;72.10
63017;DHT22;50274;45.640;11.756;2023-12-20T15:29:08;7.40;72.20